Time;durP1;ratioP1;P1;durP2;ratioP2;P2;SDS_P1;SDS_P2;PMS_P1;PMS_P2;Temp;Humidity;BMP_temperature;BMP_pressure;BME280_temperature;BME280_humidity;BME280_pressure;Samples;Min_cycle;Max_cycle;Signal;HPM_P1;HPM_P2
2023/07/22 00:00:09;;;;;;;7.93;5.78;;;;;;;25.06;48.88;94811.00;6138973;23;20203;-67
2023/07/22 00:02:35;;;;;;;7.13;5.82;;;;;;;25.08;49.26;94806.47;6128671;23;20569;-68
2023/07/22 00:05:04;;;;;;;7.25;5.53;;;;;;;25.11;49.06;94821.75;6128319;23;20175;-68
2023/07/22 00:07:31;;;;;;;8.68;5.32;;;;;;;25.09;49.35;94825.00;6129142;23;20251;-67
2023/07/22 00:09:58;;;;;;;6.55;5.78;;;;;;;25.10;49.44;94822.97;6127673;23;20455;-66
2023/07/22 00:12:25;;;;;;;7.45;5.30;;;;;;;25.10;49.47;94826.59;6138746;23;20156;-67
2023/07/22 00:14:53;;;;;;;6.88;5.03;;;;;;;25.06;49.93;94830.75;6138825;23;20215;-67
2023/07/22 00:17:20;;;;;;;8.32;5.68;;;;;;;25.04;50.03;94827.59;6129191;23;20174;-65
2023/07/22 00:19:48;;;;;;;6.35;5.75;;;;;;;25.02;49.65;94821.59;6138789;23;20179;-66
2023/07/22 00:22:16;;;;;;;7.00;5.15;;;;;;;25.04;50.64;94824.75;6129013;23;20206;-71
2023/07/22 00:24:43;;;;;;;8.70;5.47;;;;;;;25.04;50.81;94821.94;6139358;23;20230;-74
2023/07/22 00:27:10;;;;;;;7.10;5.63;;;;;;;25.04;50.40;94824.75;6138729;23;20156;-75
2023/07/22 00:29:37;;;;;;;6.90;5.40;;;;;;;25.02;50.76;94835.69;6138275;23;20182;-68
2023/07/22 00:32:06;;;;;;;7.80;5.13;;;;;;;25.01;50.67;94834.13;6128930;23;20164;-66
2023/07/22 00:34:33;;;;;;;8.07;5.47;;;;;;;24.98;51.10;94838.63;6128852;23;20175;-68
2023/07/22 00:37:00;;;;;;;6.25;5.15;;;;;;;24.93;51.70;94822.28;6125378;23;20524;-69
2023/07/22 00:39:28;;;;;;;8.20;5.85;;;;;;;24.85;52.43;94823.78;6127895;23;20186;-69
2023/07/22 00:41:55;;;;;;;6.35;5.63;;;;;;;24.81;52.79;94826.72;6129066;23;20195;-69
2023/07/22 00:44:22;;;;;;;6.13;5.50;;;;;;;24.77;52.86;94825.25;6128958;23;20497;-69
2023/07/22 00:47:28;;;;;;;8.63;5.88;;;;;;;24.76;52.88;94834.94;6129110;23;20172;-69
2023/07/22 00:50:33;;;;;;;7.50;5.78;;;;;;;24.72;53.51;94838.66;6138495;23;20171;-69
2023/07/22 00:53:37;;;;;;;6.85;5.95;;;;;;;24.70;53.30;94843.97;6127702;23;20179;-72
2023/07/22 00:56:41;;;;;;;8.00;5.50;;;;;;;24.69;52.73;94845.22;6127635;23;20172;-72
2023/07/22 00:59:45;;;;;;;7.13;5.68;;;;;;;24.68;53.09;94834.38;6127841;23;20171;-72
2023/07/22 01:02:49;;;;;;;7.70;5.75;;;;;;;24.66;52.80;94826.38;6127160;23;20690;-72
2023/07/22 01:05:54;;;;;;;6.50;5.63;;;;;;;24.66;53.17;94828.41;6127420;23;20175;-72
2023/07/22 01:08:58;;;;;;;7.63;5.35;;;;;;;24.57;54.01;94826.25;6127576;23;20167;-72
2023/07/22 01:12:02;;;;;;;6.25;5.55;;;;;;;24.51;54.11;94816.78;6128738;23;20168;-72
2023/07/22 01:15:07;;;;;;;7.30;5.90;;;;;;;24.43;55.28;94810.53;6127990;23;20522;-72
2023/07/22 01:18:11;;;;;;;6.47;5.82;;;;;;;24.35;55.14;94817.63;6129212;23;20190;-72
2023/07/22 01:21:15;;;;;;;11.80;6.28;;;;;;;24.32;54.96;94824.16;6129408;23;20187;-72
2023/07/22 01:24:19;;;;;;;6.00;5.40;;;;;;;24.33;55.50;94825.75;6129629;23;20172;-72
2023/07/22 01:27:24;;;;;;;8.60;5.93;;;;;;;24.22;55.96;94814.78;6129629;23;20168;-72
2023/07/22 01:30:28;;;;;;;7.90;5.35;;;;;;;24.12;55.45;94809.47;6140378;23;20176;-72
2023/07/22 01:33:32;;;;;;;6.75;6.00;;;;;;;24.16;55.67;94805.31;6129294;23;20580;-72
2023/07/22 01:36:36;;;;;;;7.70;5.85;;;;;;;24.21;55.03;94801.91;6130376;23;20493;-72
2023/07/22 01:39:40;;;;;;;6.13;5.45;;;;;;;24.23;55.21;94796.63;6129116;23;20187;-72
2023/07/22 01:42:45;;;;;;;6.28;5.57;;;;;;;24.17;55.29;94806.88;6129246;23;20198;-72
2023/07/22 01:45:14;;;;;;;6.47;5.88;;;;;;;24.16;56.12;94805.31;6129454;23;20179;-72
2023/07/22 01:47:41;;;;;;;6.28;5.60;;;;;;;24.15;56.18;94806.56;6129950;23;20255;-72
2023/07/22 01:50:09;;;;;;;6.20;5.65;;;;;;;24.13;56.16;94796.97;6130665;23;20167;-72
2023/07/22 01:52:36;;;;;;;7.10;5.38;;;;;;;24.10;55.96;94797.84;6130286;23;20247;-72
2023/07/22 01:55:05;;;;;;;6.47;5.68;;;;;;;24.06;55.74;94805.63;6140184;23;20187;-72
2023/07/22 01:57:32;;;;;;;6.05;5.45;;;;;;;24.00;55.57;94796.91;6140082;23;20230;-68
2023/07/22 01:59:59;;;;;;;7.20;5.90;;;;;;;23.98;56.13;94794.56;6129353;23;20212;-72
2023/07/22 02:02:28;;;;;;;7.00;5.68;;;;;;;23.98;55.98;94803.00;6129994;23;20190;-72
2023/07/22 02:04:55;;;;;;;8.55;5.53;;;;;;;23.98;55.24;94800.19;6140170;23;20152;-72
2023/07/22 02:07:22;;;;;;;8.75;5.78;;;;;;;23.97;56.83;94801.44;6129260;23;20466;-72
2023/07/22 02:09:51;;;;;;;6.47;5.88;;;;;;;23.90;56.59;94798.03;6139964;23;20189;-72
2023/07/22 02:12:18;;;;;;;7.13;6.30;;;;;;;23.86;56.57;94798.13;6130456;23;20167;-72
2023/07/22 02:14:45;;;;;;;8.23;5.88;;;;;;;23.83;56.49;94799.03;6130245;23;20164;-72
2023/07/22 02:17:12;;;;;;;6.75;6.03;;;;;;;23.83;56.48;94793.41;6139942;23;20168;-72
2023/07/22 02:19:40;;;;;;;7.05;6.35;;;;;;;23.82;56.28;94796.63;6128762;23;20243;-72
2023/07/22 02:22:07;;;;;;;8.15;5.97;;;;;;;23.78;56.75;94802.38;6130155;23;20187;-72
2023/07/22 02:24:35;;;;;;;7.22;6.15;;;;;;;23.78;57.02;94808.00;6129738;23;20176;-72
2023/07/22 02:27:02;;;;;;;6.78;6.10;;;;;;;23.78;56.73;94805.19;6130026;23;20167;-72
2023/07/22 02:29:30;;;;;;;8.38;5.47;;;;;;;23.79;55.63;94806.78;6139399;23;20178;-71
2023/07/22 02:31:57;;;;;;;6.88;5.28;;;;;;;23.79;55.43;94809.59;6140366;23;20172;-72
2023/07/22 02:34:24;;;;;;;6.60;5.70;;;;;;;23.81;55.78;94811.97;6130092;23;20176;-72
2023/07/22 02:36:52;;;;;;;6.22;5.63;;;;;;;23.79;55.38;94812.41;6130039;23;20207;-72
2023/07/22 02:39:19;;;;;;;6.20;5.60;;;;;;;23.78;55.73;94813.63;6129981;23;20175;-72
2023/07/22 02:41:45;;;;;;;7.75;6.00;;;;;;;23.79;55.96;94815.22;6128752;23;20192;-71
2023/07/22 02:44:12;;;;;;;5.53;4.97;;;;;;;23.77;55.94;94810.03;6130023;23;20178;-71
2023/07/22 02:46:41;;;;;;;5.65;5.10;;;;;;;23.76;55.85;94808.47;6129194;23;20239;-71
2023/07/22 02:49:07;;;;;;;8.30;5.90;;;;;;;23.77;55.45;94814.88;6139325;23;20183;-71
2023/07/22 02:51:34;;;;;;;7.60;5.97;;;;;;;23.74;55.86;94813.72;6129870;23;20519;-71
2023/07/22 02:54:03;;;;;;;6.05;5.45;;;;;;;23.75;55.91;94806.88;6128813;23;20176;-72
2023/07/22 02:56:30;;;;;;;5.82;5.22;;;;;;;23.73;55.85;94814.97;6128697;23;20184;-72
2023/07/22 02:58:57;;;;;;;9.25;5.82;;;;;;;23.73;55.42;94814.97;6129421;23;20160;-71
2023/07/22 03:01:24;;;;;;;6.70;5.35;;;;;;;23.75;56.17;94817.38;6128642;23;20259;-72
2023/07/22 03:03:51;;;;;;;8.02;6.07;;;;;;;23.74;55.54;94819.38;6129157;23;20203;-72
2023/07/22 03:06:18;;;;;;;7.93;6.05;;;;;;;23.74;56.14;94815.75;6129921;23;20160;-72
2023/07/22 03:08:45;;;;;;;6.50;5.80;;;;;;;23.72;55.56;94813.41;6128634;23;20194;-72
2023/07/22 03:11:13;;;;;;;6.20;5.35;;;;;;;23.72;55.99;94818.25;6129071;23;20175;-72
2023/07/22 03:13:41;;;;;;;6.80;5.63;;;;;;;23.73;55.52;94814.97;6128634;23;20187;-72
2023/07/22 03:16:08;;;;;;;7.90;6.07;;;;;;;23.71;55.96;94819.47;6129622;23;20174;-72
2023/07/22 03:18:35;;;;;;;6.35;5.70;;;;;;;23.71;55.38;94822.28;6139341;23;20204;-71
2023/07/22 03:21:02;;;;;;;7.03;5.70;;;;;;;23.68;55.38;94815.53;6128584;23;20191;-71
2023/07/22 03:23:29;;;;;;;9.13;5.85;;;;;;;23.67;55.18;94807.50;6129566;23;20159;-71
2023/07/22 03:25:56;;;;;;;8.35;6.10;;;;;;;23.71;55.11;94814.66;6129499;23;20175;-71
2023/07/22 03:28:24;;;;;;;6.93;5.95;;;;;;;23.73;55.06;94825.44;6139196;23;20175;-71
2023/07/22 03:30:51;;;;;;;6.90;5.88;;;;;;;23.70;54.80;94838.38;6128503;23;20187;-71
2023/07/22 03:33:17;;;;;;;6.95;5.70;;;;;;;23.70;55.33;94841.19;6129509;23;20171;-71
2023/07/22 03:35:45;;;;;;;7.15;5.88;;;;;;;23.68;55.39;94840.09;6129928;23;20204;-71
2023/07/22 03:38:11;;;;;;;7.18;5.93;;;;;;;23.66;55.23;94837.66;6128998;23;20160;-72
2023/07/22 03:40:38;;;;;;;6.47;5.78;;;;;;;23.65;55.28;94844.53;6128820;23;20187;-72
2023/07/22 03:43:06;;;;;;;6.35;5.68;;;;;;;23.64;55.04;94842.16;6128036;23;20188;-72
2023/07/22 03:45:34;;;;;;;5.95;5.45;;;;;;;23.64;55.35;94844.97;6128896;23;20549;-72
2023/07/22 03:48:01;;;;;;;6.60;5.75;;;;;;;23.61;55.64;94848.69;6128104;23;20171;-73
2023/07/22 03:50:28;;;;;;;6.72;6.03;;;;;;;23.60;55.86;94849.91;6128483;23;20172;-73
2023/07/22 03:52:55;;;;;;;10.75;6.20;;;;;;;23.60;56.00;94855.53;6138920;23;20166;-73
2023/07/22 03:55:22;;;;;;;8.02;6.03;;;;;;;23.59;55.86;94862.41;6128167;23;20247;-73
2023/07/22 03:57:49;;;;;;;7.93;6.38;;;;;;;23.58;55.76;94860.84;6128872;23;20176;-73
2023/07/22 04:00:16;;;;;;;6.38;5.40;;;;;;;23.59;56.33;94868.03;6128262;23;20183;-73
2023/07/22 04:02:45;;;;;;;6.65;5.78;;;;;;;23.60;56.01;94861.16;6127923;23;20192;-73
2023/07/22 04:05:12;;;;;;;8.07;5.78;;;;;;;23.59;56.43;94871.63;6128130;23;20180;-73
2023/07/22 04:07:39;;;;;;;6.32;5.72;;;;;;;23.61;56.33;94868.41;6138606;23;20172;-73
2023/07/22 04:10:07;;;;;;;7.78;6.43;;;;;;;23.61;56.81;94869.19;6128227;23;20172;-73
2023/07/22 04:12:34;;;;;;;6.65;6.00;;;;;;;23.62;57.08;94867.16;6129473;23;20164;-73
2023/07/22 04:15:01;;;;;;;6.20;5.60;;;;;;;23.61;56.68;94865.59;6128163;23;20444;-73
2023/07/22 04:17:27;;;;;;;6.38;5.70;;;;;;;23.60;57.17;94861.16;6138515;23;20181;-73
2023/07/22 04:19:56;;;;;;;7.15;6.35;;;;;;;23.57;57.10;94865.69;6138817;23;20160;-73
2023/07/22 04:22:23;;;;;;;6.82;6.03;;;;;;;23.58;57.27;94863.66;6128391;23;20193;-72
2023/07/22 04:24:50;;;;;;;7.50;5.82;;;;;;;23.58;57.84;94864.44;6127684;23;20179;-72
2023/07/22 04:27:17;;;;;;;7.80;6.30;;;;;;;23.58;57.84;94863.66;6127576;23;20175;-72
2023/07/22 04:29:44;;;;;;;8.50;6.18;;;;;;;23.56;57.65;94878.16;6127691;23;20493;-72
2023/07/22 04:32:11;;;;;;;6.43;5.82;;;;;;;23.56;57.83;94883.78;6128514;23;20179;-72
2023/07/22 04:34:38;;;;;;;7.20;6.50;;;;;;;23.58;57.49;94888.97;6127799;23;20487;-72
2023/07/22 04:37:07;;;;;;;9.07;6.40;;;;;;;23.59;57.73;94888.53;6127467;23;20219;-72
2023/07/22 04:39:34;;;;;;;7.03;6.20;;;;;;;23.63;57.73;94888.44;6138687;23;20176;-72
2023/07/22 04:42:01;;;;;;;8.45;6.75;;;;;;;23.62;57.63;94884.84;6128468;23;20191;-72
2023/07/22 04:44:28;;;;;;;7.90;6.85;;;;;;;23.63;57.87;94889.22;6127803;23;20168;-72
2023/07/22 04:46:58;;;;;;;7.88;6.10;;;;;;;23.65;57.67;94883.94;6128812;23;20182;-72
2023/07/22 04:49:25;;;;;;;7.28;6.10;;;;;;;23.67;57.78;94883.53;6128612;23;20160;-72
2023/07/22 04:51:52;;;;;;;9.45;6.50;;;;;;;23.70;58.36;94882.66;6127632;23;20474;-72
2023/07/22 04:54:20;;;;;;;9.73;6.90;;;;;;;23.72;58.04;94892.25;6128069;23;20175;-72
2023/07/22 04:56:47;;;;;;;9.40;6.88;;;;;;;23.72;58.67;94889.44;6128716;23;20160;-72
2023/07/22 04:59:14;;;;;;;8.90;6.72;;;;;;;23.76;58.67;94883.69;6128739;23;20172;-72
2023/07/22 05:01:41;;;;;;;9.13;7.55;;;;;;;23.78;58.92;94886.84;6127252;23;20175;-72
2023/07/22 05:04:08;;;;;;;10.15;7.03;;;;;;;23.84;58.95;94899.16;6127703;23;20180;-72
2023/07/22 05:06:35;;;;;;;8.32;6.75;;;;;;;24.00;58.34;94896.31;6128767;23;20493;-72
2023/07/22 05:09:02;;;;;;;7.68;6.68;;;;;;;24.23;57.93;94900.09;6127290;23;20600;-72
2023/07/22 05:11:31;;;;;;;7.90;6.28;;;;;;;24.50;57.10;94900.53;6138588;23;20171;-72
2023/07/22 05:13:58;;;;;;;7.45;6.40;;;;;;;24.54;57.18;94916.56;6127630;23;20176;-72
2023/07/22 05:16:24;;;;;;;6.95;6.25;;;;;;;24.46;57.48;94913.94;6128714;23;20164;-72
2023/07/22 05:18:51;;;;;;;7.05;5.90;;;;;;;24.40;57.88;94909.31;6127723;23;20179;-72
2023/07/22 05:21:18;;;;;;;7.72;6.53;;;;;;;24.39;58.21;94910.50;6138105;23;20171;-72
2023/07/22 05:23:44;;;;;;;10.00;6.72;;;;;;;24.53;58.11;94900.88;6128656;23;20195;-72
2023/07/22 05:26:11;;;;;;;9.88;6.80;;;;;;;24.68;57.41;94908.47;6128864;23;20160;-72
2023/07/22 05:28:39;;;;;;;7.60;6.75;;;;;;;24.92;56.92;94908.16;6128678;23;20171;-72
2023/07/22 05:31:06;;;;;;;8.50;6.45;;;;;;;24.90;57.14;94917.06;6128303;23;20520;-73
2023/07/22 05:33:33;;;;;;;7.47;6.32;;;;;;;24.93;57.41;94909.75;6128515;23;20488;-72
2023/07/22 05:36:00;;;;;;;8.38;7.50;;;;;;;24.84;57.08;94918.88;6128647;23;20200;-72
2023/07/22 05:38:26;;;;;;;7.85;7.05;;;;;;;24.65;58.08;94915.00;6128640;23;20160;-72
2023/07/22 05:40:53;;;;;;;7.80;7.00;;;;;;;24.54;57.87;94913.75;6127209;23;20186;-72
2023/07/22 05:43:20;;;;;;;7.68;6.85;;;;;;;24.55;57.87;94920.94;6127360;23;20211;-72
2023/07/22 05:45:48;;;;;;;7.63;6.90;;;;;;;24.48;58.03;94914.31;6127641;23;20183;-72
2023/07/22 05:48:15;;;;;;;6.72;6.03;;;;;;;24.46;58.59;94915.97;6138690;23;20168;-72
2023/07/22 05:50:42;;;;;;;6.80;6.20;;;;;;;24.70;58.60;94914.47;6128288;23;20588;-72
2023/07/22 05:53:08;;;;;;;7.97;6.45;;;;;;;24.91;56.93;94909.38;6127336;23;20175;-72
2023/07/22 05:55:35;;;;;;;8.80;8.00;;;;;;;24.85;56.49;94909.16;6127441;23;20242;-72
2023/07/22 05:58:05;;;;;;;10.40;8.25;;;;;;;24.69;57.50;94909.25;6128085;23;20179;-72
2023/07/22 06:00:32;;;;;;;10.55;9.40;;;;;;;24.60;58.14;94909.94;6127760;23;20266;-72
2023/07/22 06:03:00;;;;;;;11.52;9.55;;;;;;;24.52;58.55;94913.41;6128560;23;20188;-71
2023/07/22 06:05:27;;;;;;;9.23;8.30;;;;;;;24.48;58.79;94928.41;6128992;23;20163;-71
2023/07/22 06:07:54;;;;;;;8.98;8.13;;;;;;;24.45;58.56;94925.69;6130145;23;20183;-71
2023/07/22 06:10:21;;;;;;;9.55;8.23;;;;;;;24.56;58.01;94933.84;6130312;23;20231;-72
2023/07/22 06:12:48;;;;;;;9.07;7.65;;;;;;;24.77;58.06;94946.50;6129130;23;20175;-71
2023/07/22 06:15:14;;;;;;;8.38;7.28;;;;;;;24.75;58.17;94949.75;6139573;23;20209;-72
2023/07/22 06:17:41;;;;;;;9.13;7.10;;;;;;;24.81;57.62;94950.00;6128708;23;20183;-71
2023/07/22 06:20:12;;;;;;;7.63;6.93;;;;;;;24.88;58.27;94950.59;6129710;23;20180;-71
2023/07/22 06:22:39;;;;;;;7.97;6.43;;;;;;;24.97;57.84;94947.09;6129103;23;20200;-70
2023/07/22 06:25:06;;;;;;;9.45;6.85;;;;;;;25.12;57.23;94950.28;6130165;23;20156;-69
2023/07/22 06:27:34;;;;;;;9.82;8.70;;;;;;;25.21;57.64;94941.94;6129806;23;20561;-69
2023/07/22 06:30:02;;;;;;;7.78;7.00;;;;;;;25.18;57.23;94954.91;6128661;23;20175;-70
2023/07/22 06:32:30;;;;;;;9.98;9.00;;;;;;;25.17;57.51;94953.34;6128986;23;20172;-76
2023/07/22 06:34:57;;;;;;;11.10;7.40;;;;;;;25.14;58.00;94964.75;6130186;23;20171;-71
2023/07/22 06:37:28;;;;;;;11.93;7.93;;;;;;;25.28;57.96;94955.06;6129500;23;20211;-72
2023/07/22 06:39:55;;;;;;;9.30;8.30;;;;;;;25.24;58.22;94965.63;6128471;23;20575;-71
2023/07/22 06:42:59;;;;;;;10.05;8.82;;;;;;;25.12;58.63;94956.72;6129838;23;20184;-72
2023/07/22 06:46:03;;;;;;;11.65;8.70;;;;;;;25.06;58.73;94957.72;6128493;23;20183;-71
2023/07/22 06:49:07;;;;;;;9.50;7.93;;;;;;;25.05;58.74;94958.94;6128398;23;20611;-70
2023/07/22 06:52:11;;;;;;;9.70;8.45;;;;;;;25.04;59.20;94957.38;6128717;23;20172;-70
2023/07/22 06:55:15;;;;;;;12.27;10.27;;;;;;;25.03;58.39;94952.97;6129363;23;20492;-70
2023/07/22 06:58:19;;;;;;;9.68;8.80;;;;;;;24.99;58.69;94950.25;6128696;23;20183;-70
2023/07/22 07:01:23;;;;;;;12.10;10.20;;;;;;;24.98;58.63;94934.56;6129735;23;20170;-70
2023/07/22 07:04:27;;;;;;;10.68;9.18;;;;;;;24.96;58.98;94939.88;6129642;23;20187;-70
2023/07/22 07:07:32;;;;;;;11.00;8.82;;;;;;;24.97;58.80;94938.63;6128559;23;20179;-70
2023/07/22 07:10:36;;;;;;;10.38;9.38;;;;;;;25.03;59.69;94944.50;6129840;23;20168;-72
2023/07/22 07:13:40;;;;;;;10.45;8.52;;;;;;;25.19;58.53;94933.13;6128335;23;20163;-70
2023/07/22 07:16:47;;;;;;;11.43;8.65;;;;;;;25.36;58.46;94936.63;6139593;23;20156;-70
2023/07/22 07:19:51;;;;;;;10.23;8.93;;;;;;;25.52;57.87;94933.66;6128200;23;20186;-70
2023/07/22 07:22:54;;;;;;;12.75;9.85;;;;;;;25.45;57.25;94934.72;6138904;23;20576;-69
2023/07/22 07:25:58;;;;;;;12.80;10.23;;;;;;;25.43;57.43;94934.38;6128514;23;20167;-69
2023/07/22 07:29:03;;;;;;;13.93;10.48;;;;;;;25.42;57.22;94932.81;6139162;23;20187;-69
2023/07/22 07:32:06;;;;;;;11.68;9.27;;;;;;;25.47;57.03;94930.66;6128336;23;20172;-69
2023/07/22 07:35:10;;;;;;;14.25;9.35;;;;;;;25.75;57.18;94932.53;6129658;23;20175;-70
2023/07/22 07:38:14;;;;;;;14.10;12.57;;;;;;;25.92;56.40;94922.66;6128790;23;20213;-70
2023/07/22 07:40:42;;;;;;;15.45;12.70;;;;;;;25.88;56.72;94926.84;6129448;23;20170;-70
2023/07/22 07:43:09;;;;;;;13.18;10.63;;;;;;;25.83;56.48;94922.56;6128327;23;20194;-70
2023/07/22 07:45:39;;;;;;;13.30;9.82;;;;;;;25.88;56.48;94916.34;6138780;23;20156;-69
2023/07/22 07:48:06;;;;;;;12.25;11.00;;;;;;;25.96;56.12;94913.25;6129320;23;20176;-70
2023/07/22 07:50:33;;;;;;;10.43;9.10;;;;;;;25.99;56.31;94923.66;6128021;23;20168;-70
2023/07/22 07:53:00;;;;;;;15.07;10.68;;;;;;;26.02;56.50;94915.06;6138876;23;20156;-70
2023/07/22 07:55:27;;;;;;;10.75;9.52;;;;;;;25.96;56.45;94911.22;6127944;23;20227;-69
2023/07/22 07:57:55;;;;;;;12.30;9.63;;;;;;;25.92;56.73;94914.16;6127713;23;20648;-69
2023/07/22 08:00:22;;;;;;;11.80;9.75;;;;;;;25.91;56.97;94911.81;6128777;23;20175;-69
2023/07/22 08:02:49;;;;;;;10.45;9.15;;;;;;;25.95;56.62;94912.47;6128400;23;20219;-70
2023/07/22 08:05:16;;;;;;;11.65;10.35;;;;;;;25.99;56.78;94907.50;6129070;23;20172;-70
2023/07/22 08:07:43;;;;;;;10.40;9.35;;;;;;;26.05;56.37;94916.19;6129380;23;20164;-70
2023/07/22 08:10:10;;;;;;;9.57;8.63;;;;;;;26.05;56.23;94911.31;6128497;23;20190;-70
2023/07/22 08:12:37;;;;;;;10.55;9.52;;;;;;;26.09;56.25;94908.38;6128169;23;20172;-70
2023/07/22 08:15:08;;;;;;;10.98;9.88;;;;;;;26.10;56.06;94905.06;6127926;23;20172;-70
2023/07/22 08:17:35;;;;;;;11.80;10.07;;;;;;;26.13;56.28;94911.84;6129065;23;20187;-70
2023/07/22 08:20:02;;;;;;;14.40;11.25;;;;;;;26.06;55.96;94910.06;6128010;23;20178;-70
2023/07/22 08:22:29;;;;;;;11.95;10.75;;;;;;;26.03;56.15;94908.16;6128236;23;20196;-70
2023/07/22 08:24:56;;;;;;;13.00;11.32;;;;;;;26.01;56.31;94902.19;6127879;23;20179;-70
2023/07/22 08:27:24;;;;;;;15.35;11.00;;;;;;;26.09;57.29;94902.72;6127733;23;20548;-69
2023/07/22 08:29:50;;;;;;;13.15;10.70;;;;;;;26.20;57.09;94905.16;6128512;23;20176;-69
2023/07/22 08:32:18;;;;;;;12.02;10.50;;;;;;;26.20;57.09;94900.28;6127835;23;20182;-69
2023/07/22 08:34:45;;;;;;;14.45;12.27;;;;;;;26.23;56.94;94892.94;6129346;23;20180;-70
2023/07/22 08:37:12;;;;;;;11.70;10.50;;;;;;;26.27;56.24;94887.94;6128823;23;20207;-70
2023/07/22 08:39:40;;;;;;;13.27;10.68;;;;;;;26.34;56.53;94867.88;6103232;23;20176;-70
2023/07/22 08:42:08;;;;;;;13.60;9.95;;;;;;;26.40;56.84;94869.66;6127623;23;20183;-70
2023/07/22 08:44:39;;;;;;;13.30;10.52;;;;;;;26.48;56.47;94861.72;6128139;23;20204;-70
2023/07/22 08:47:10;;;;;;;13.27;10.23;;;;;;;26.51;56.05;94865.66;6128013;23;20182;-69
2023/07/22 08:49:38;;;;;;;14.60;11.73;;;;;;;26.58;55.97;94854.88;6128806;23;20167;-69
2023/07/22 08:52:05;;;;;;;14.18;11.15;;;;;;;26.68;56.38;94846.44;6128281;23;20172;-69
2023/07/22 08:54:32;;;;;;;12.90;10.55;;;;;;;26.69;55.97;94848.81;6126822;23;20242;-69
2023/07/22 08:56:59;;;;;;;12.15;10.88;;;;;;;26.75;56.25;94849.75;6128843;23;20171;-70
2023/07/22 08:59:26;;;;;;;11.95;10.50;;;;;;;26.82;56.38;94845.88;6128748;23;20179;-68
2023/07/22 09:01:53;;;;;;;11.65;9.88;;;;;;;26.86;55.00;94838.81;6138362;23;20215;-70
2023/07/22 09:04:21;;;;;;;10.32;9.23;;;;;;;26.92;54.76;94835.38;6127681;23;20195;-69
2023/07/22 09:06:49;;;;;;;12.07;9.10;;;;;;;27.00;54.15;94831.78;6128737;23;20163;-69
2023/07/22 09:09:17;;;;;;;11.52;10.10;;;;;;;27.16;54.51;94835.66;6127665;23;20186;-69
2023/07/22 09:11:45;;;;;;;11.68;10.48;;;;;;;27.25;53.91;94830.81;6127596;23;20553;-70
2023/07/22 09:14:11;;;;;;;15.60;10.48;;;;;;;27.26;54.21;94834.41;6127492;23;20211;-70
2023/07/22 09:16:39;;;;;;;11.75;10.43;;;;;;;27.31;54.61;94837.44;6128668;23;20571;-69
2023/07/22 09:19:06;;;;;;;14.10;10.88;;;;;;;27.41;55.42;94834.63;6127337;23;20183;-70
2023/07/22 09:21:35;;;;;;;12.40;10.00;;;;;;;27.65;51.94;94838.44;6128706;23;20215;-70
2023/07/22 09:24:21;;;;;;;12.05;9.70;;;;;;;27.75;53.02;94822.28;6138358;23;20187;-70
2023/07/22 09:26:47;;;;;;;15.25;10.20;;;;;;;27.75;53.02;94823.06;6138033;23;20224;-70
2023/07/22 09:29:14;;;;;;;11.88;10.23;;;;;;;27.91;52.35;94830.44;6128458;23;20175;-70
2023/07/22 09:31:50;;;;;;;12.63;9.32;;;;;;;28.07;51.12;94829.34;6127866;23;20180;-70
2023/07/22 09:34:17;;;;;;;10.82;9.30;;;;;;;28.08;51.52;94833.75;6128318;23;20203;-70
2023/07/22 09:36:55;;;;;;;10.20;9.25;;;;;;;28.13;50.73;94821.00;6127804;23;20215;-70
2023/07/22 09:39:23;;;;;;;14.10;9.90;;;;;;;28.18;54.36;94820.34;6129304;23;20175;-70
2023/07/22 09:41:52;;;;;;;11.20;9.70;;;;;;;28.34;51.93;94814.34;6129776;23;20176;-70
2023/07/22 09:44:19;;;;;;;11.63;9.10;;;;;;;28.33;51.65;94812.00;6130356;23;20239;-70
2023/07/22 09:46:48;;;;;;;13.57;9.85;;;;;;;28.30;50.83;94806.00;6140014;23;20326;-70
2023/07/22 09:49:18;;;;;;;12.50;9.75;;;;;;;28.28;50.60;94804.91;6129539;23;20183;-70
2023/07/22 09:51:45;;;;;;;13.13;8.57;;;;;;;28.46;48.56;94802.03;6128904;23;20619;-70
2023/07/22 09:54:14;;;;;;;15.93;9.23;;;;;;;28.81;47.58;94800.84;6129854;23;20175;-70
2023/07/22 09:56:47;;;;;;;11.75;7.68;;;;;;;29.12;48.06;94807.03;6139986;23;20565;-70
2023/07/22 09:59:14;;;;;;;11.30;8.75;;;;;;;29.45;45.95;94800.53;6130348;23;20215;-70
2023/07/22 10:01:42;;;;;;;11.20;9.18;;;;;;;29.54;48.07;94808.22;6129884;23;20458;-70
2023/07/22 10:04:09;;;;;;;14.30;8.65;;;;;;;29.76;46.20;94800.19;6128968;23;20274;-70
2023/07/22 10:06:37;;;;;;;10.45;9.25;;;;;;;30.04;46.02;94800.75;6129183;23;20175;-70
2023/07/22 10:09:07;;;;;;;13.45;8.57;;;;;;;30.30;44.12;94801.00;6129319;23;20179;-71
2023/07/22 10:11:33;;;;;;;16.15;6.93;;;;;;;30.55;38.84;94804.56;6129209;23;20222;-71
2023/07/22 10:14:02;;;;;;;12.98;7.03;;;;;;;30.66;39.48;94811.22;6129947;23;20546;-71
2023/07/22 10:16:30;;;;;;;15.23;7.20;;;;;;;30.82;38.06;94812.03;6128835;23;20175;-71
2023/07/22 10:18:58;;;;;;;17.05;7.13;;;;;;;30.91;37.79;94801.31;6129113;23;20183;-71
2023/07/22 10:21:25;;;;;;;14.63;6.90;;;;;;;30.90;38.26;94796.09;6130097;23;20164;-71
2023/07/22 10:23:52;;;;;;;11.40;7.03;;;;;;;31.04;37.76;94798.13;6130189;23;20180;-71
2023/07/22 10:26:20;;;;;;;14.00;7.35;;;;;;;31.09;38.52;94793.84;6129434;23;20172;-71
2023/07/22 10:28:47;;;;;;;16.60;6.97;;;;;;;31.15;38.00;94791.84;6130105;23;20164;-71
2023/07/22 10:31:18;;;;;;;15.98;7.22;;;;;;;31.29;37.99;94793.06;6128461;23;20172;-71
2023/07/22 10:33:46;;;;;;;13.93;6.43;;;;;;;31.45;37.44;94786.88;6128851;23;20251;-72
2023/07/22 10:36:15;;;;;;;15.30;7.13;;;;;;;31.54;36.66;94788.78;6129929;23;20269;-72
2023/07/22 10:38:42;;;;;;;13.88;7.22;;;;;;;31.61;36.86;94788.38;6130100;23;20160;-71
2023/07/22 10:41:13;;;;;;;14.07;6.60;;;;;;;31.75;36.45;94787.50;6128923;23;20184;-72
2023/07/22 10:43:40;;;;;;;14.23;6.45;;;;;;;31.73;36.39;94780.72;6130035;23;20190;-72
2023/07/22 10:46:08;;;;;;;12.48;5.68;;;;;;;31.82;36.78;94769.19;6129264;23;20172;-72
2023/07/22 10:48:38;;;;;;;15.00;6.25;;;;;;;31.91;35.91;94774.75;6128570;23;20182;-71
2023/07/22 10:51:10;;;;;;;11.70;5.97;;;;;;;31.97;36.08;94760.59;6128986;23;20172;-71
2023/07/22 10:53:42;;;;;;;14.95;6.53;;;;;;;32.17;35.46;94782.56;6128381;23;20172;-71
2023/07/22 10:56:14;;;;;;;11.52;5.97;;;;;;;32.19;34.75;94772.22;6129129;23;20203;-71
2023/07/22 10:58:59;;;;;;;13.48;5.72;;;;;;;32.25;34.88;94772.31;6128956;23;20175;-71
2023/07/22 11:01:34;;;;;;;13.20;6.18;;;;;;;32.27;35.51;94764.00;6128660;23;20172;-71
2023/07/22 11:04:11;;;;;;;14.27;6.07;;;;;;;32.32;35.22;94758.38;6139074;23;20215;-72
2023/07/22 11:06:38;;;;;;;12.38;6.25;;;;;;;32.37;35.31;94756.84;6140078;23;20176;-71
2023/07/22 11:09:05;;;;;;;12.88;6.18;;;;;;;32.49;34.78;94767.09;6128689;23;20171;-71
2023/07/22 11:11:40;;;;;;;13.27;5.93;;;;;;;32.65;33.70;94759.22;6139328;23;20161;-71
2023/07/22 11:14:14;;;;;;;16.52;6.30;;;;;;;32.71;34.22;94752.25;6128740;23;20230;-71
2023/07/22 11:16:43;;;;;;;15.65;7.50;;;;;;;32.70;33.85;94753.53;6128740;23;20182;-71
2023/07/22 11:19:11;;;;;;;13.73;5.97;;;;;;;32.78;33.03;94757.50;6139545;23;20174;-71
2023/07/22 11:21:38;;;;;;;16.75;6.95;;;;;;;32.78;33.89;94754.63;6128513;23;20186;-71
2023/07/22 11:24:05;;;;;;;15.82;6.32;;;;;;;32.82;33.19;94745.84;6128514;23;20195;-71
2023/07/22 11:26:32;;;;;;;12.23;5.65;;;;;;;32.77;33.65;94749.44;6139512;23;20165;-71
2023/07/22 11:29:00;;;;;;;12.60;5.78;;;;;;;32.62;34.60;94754.50;6128088;23;20176;-71
2023/07/22 11:31:32;;;;;;;13.43;6.00;;;;;;;32.71;34.31;94749.38;6129070;23;20467;-72
2023/07/22 11:33:58;;;;;;;12.70;5.95;;;;;;;32.67;34.36;94745.19;6129011;23;20210;-71
2023/07/22 11:36:27;;;;;;;11.40;5.43;;;;;;;32.79;34.00;94735.41;6128231;23;20504;-71
2023/07/22 11:38:55;;;;;;;15.02;6.13;;;;;;;32.81;33.44;94744.28;6139227;23;20470;-71
2023/07/22 11:41:22;;;;;;;13.93;5.47;;;;;;;32.69;33.84;94746.28;6129264;23;20215;-71
2023/07/22 11:43:49;;;;;;;12.75;6.55;;;;;;;32.70;33.95;94735.63;6128959;23;20192;-71
2023/07/22 11:46:16;;;;;;;12.52;5.93;;;;;;;32.78;34.08;94733.88;6129601;23;20170;-71
2023/07/22 11:48:51;;;;;;;17.10;5.85;;;;;;;32.96;33.65;94736.38;6129117;23;20454;-71
2023/07/22 11:51:19;;;;;;;14.80;5.80;;;;;;;33.12;33.64;94731.25;6129369;23;20222;-71
2023/07/22 11:53:49;;;;;;;14.45;5.85;;;;;;;33.23;33.39;94725.66;6129244;23;20179;-71